Time;durP1;ratioP1;P1;durP2;ratioP2;P2;SDS_P1;SDS_P2;PMS_P1;PMS_P2;Temp;Humidity;BMP_temperature;BMP_pressure;BME280_temperature;BME280_humidity;BME280_pressure;Samples;Min_cycle;Max_cycle;Signal;HPM_P1;HPM_P2
2023/04/13 00:00:23;;;;;;;3.13;0.80;;;;;;;7.62;75.42;99413.66;5019955;28;20065;-68
2023/04/13 00:02:52;;;;;;;1.95;0.90;;;;;;;7.65;76.06;99423.91;5014114;28;20060;-67
2023/04/13 00:05:19;;;;;;;2.85;0.70;;;;;;;7.79;74.15;99388.47;5019643;28;20041;-67
2023/04/13 00:07:44;;;;;;;2.22;1.00;;;;;;;7.83;74.03;99408.94;5013010;28;20029;-67
2023/04/13 00:10:10;;;;;;;2.53;0.77;;;;;;;7.81;74.12;99403.00;5017946;28;20083;-66
2023/04/13 00:12:37;;;;;;;7.18;1.00;;;;;;;7.79;73.84;99412.47;5017295;28;20106;-67
2023/04/13 00:15:04;;;;;;;6.88;1.98;;;;;;;7.77;74.96;99421.09;5015251;28;20133;-67
2023/04/13 00:17:30;;;;;;;0.85;0.70;;;;;;;7.79;74.92;99415.06;5018606;28;20044;-67
2023/04/13 00:19:58;;;;;;;2.40;1.00;;;;;;;7.84;74.33;99412.38;5018312;28;20033;-67
2023/04/13 00:22:24;;;;;;;4.70;0.75;;;;;;;7.80;74.92;99415.91;5013841;28;20084;-67
2023/04/13 00:24:53;;;;;;;1.83;0.85;;;;;;;7.78;74.41;99405.63;5023277;28;20036;-67
2023/04/13 00:27:19;;;;;;;3.85;0.90;;;;;;;7.77;75.11;99414.22;5020130;28;20038;-67
2023/04/13 00:29:45;;;;;;;2.30;0.65;;;;;;;7.81;74.40;99397.00;5013792;28;20034;-67
2023/04/13 00:32:11;;;;;;;3.70;0.98;;;;;;;7.85;73.87;99390.94;5010744;28;20041;-66
2023/04/13 00:34:36;;;;;;;3.25;0.80;;;;;;;7.87;73.40;99391.75;5009630;28;20069;-67
2023/04/13 00:37:02;;;;;;;5.25;0.70;;;;;;;7.93;73.81;99399.34;5016721;28;20125;-67
2023/04/13 00:39:29;;;;;;;3.10;0.98;;;;;;;7.95;74.01;99395.84;5017219;28;20033;-67
2023/04/13 00:41:57;;;;;;;2.63;1.00;;;;;;;8.01;73.33;99387.19;5004912;28;20045;-67
2023/04/13 00:44:23;;;;;;;2.30;0.77;;;;;;;7.98;73.60;99382.94;5021454;28;20041;-67
2023/04/13 00:46:49;;;;;;;5.95;1.67;;;;;;;7.96;73.50;99389.00;5015612;28;20028;-67
2023/04/13 00:49:16;;;;;;;3.38;0.75;;;;;;;8.01;73.65;99395.72;5019678;28;20044;-67
2023/04/13 00:51:43;;;;;;;3.63;1.15;;;;;;;8.03;72.91;99380.28;5016729;28;20801;-67
2023/04/13 00:54:13;;;;;;;7.03;0.80;;;;;;;8.04;72.81;99386.28;5023181;28;20033;-67
2023/04/13 00:56:41;;;;;;;2.03;0.70;;;;;;;8.06;72.99;99382.78;5011273;28;20123;-67
2023/04/13 00:59:10;;;;;;;2.80;0.75;;;;;;;8.02;72.98;99384.56;5011129;28;20041;-67
2023/04/13 01:01:45;;;;;;;6.97;1.45;;;;;;;8.03;72.60;99385.44;5012415;28;20138;-67
2023/04/13 01:04:20;;;;;;;2.42;0.82;;;;;;;8.07;72.77;99386.22;5015937;28;20049;-67
2023/04/13 01:06:55;;;;;;;;;;;;;;;8.02;72.57;99383.72;5020699;28;20036;-68
2023/04/13 01:09:39;;;;;;;2.63;0.77;;;;;;;7.99;74.05;99394.06;5018105;28;19928;-67
2023/04/13 01:12:12;;;;;;;4.35;0.77;;;;;;;7.95;73.12;99377.84;5010273;28;20049;-67
2023/04/13 01:14:54;;;;;;;2.42;1.58;;;;;;;8.01;72.65;99354.56;5023358;28;20922;-67
2023/04/13 01:17:24;;;;;;;4.43;0.60;;;;;;;7.96;73.28;99369.25;5016485;28;20033;-68
2023/04/13 01:20:07;;;;;;;2.58;0.70;;;;;;;7.95;72.75;99377.03;5016076;28;20479;-67
2023/04/13 01:22:34;;;;;;;2.72;0.82;;;;;;;7.94;72.59;99355.59;5015639;28;20353;-67
2023/04/13 01:25:37;;;;;;;3.25;0.88;;;;;;;7.92;73.15;99375.34;5026924;28;20038;-67
2023/04/13 01:28:31;;;;;;;4.38;1.00;;;;;;;7.90;73.62;99379.66;5010146;28;20090;-67
2023/04/13 01:30:59;;;;;;;1.65;0.70;;;;;;;7.88;74.02;99386.59;5005112;28;20049;-67
2023/04/13 01:33:24;;;;;;;3.00;0.80;;;;;;;7.88;73.53;99389.16;5015663;28;20128;-68
2023/04/13 01:35:50;;;;;;;4.20;0.80;;;;;;;7.85;73.26;99378.94;5014266;28;20041;-67
2023/04/13 01:38:23;;;;;;;3.10;0.98;;;;;;;7.81;73.78;99384.13;5017480;28;20683;-67
2023/04/13 01:40:49;;;;;;;3.78;0.73;;;;;;;7.79;74.53;99399.63;5013936;28;20033;-68
2023/04/13 01:43:14;;;;;;;3.63;0.85;;;;;;;7.78;74.58;99399.63;5025437;28;20028;-68
2023/04/13 01:45:59;;;;;;;2.10;0.63;;;;;;;7.73;74.07;99399.72;5013010;28;20048;-67
2023/04/13 01:48:46;;;;;;;1.63;0.80;;;;;;;7.74;74.27;99387.72;5019872;28;20037;-68
2023/04/13 01:51:33;;;;;;;2.42;0.65;;;;;;;7.70;75.06;99407.50;5018087;28;20052;-67
2023/04/13 01:54:12;;;;;;;1.55;0.68;;;;;;;7.74;74.58;99405.72;5012976;28;20033;-67
2023/04/13 01:56:42;;;;;;;2.08;0.70;;;;;;;7.83;74.22;99400.41;5028581;28;20038;-67
2023/04/13 01:59:08;;;;;;;0.80;0.57;;;;;;;7.87;74.53;99400.31;5010478;28;20069;-67
2023/04/13 02:01:33;;;;;;;4.75;0.73;;;;;;;7.94;74.14;99390.75;5017735;28;20032;-67
2023/04/13 02:04:00;;;;;;;2.42;0.75;;;;;;;7.93;75.29;99402.75;5029976;28;20814;-67
2023/04/13 02:06:27;;;;;;;1.73;0.65;;;;;;;7.90;74.31;99384.81;5016820;28;20041;-67
2023/04/13 02:08:53;;;;;;;3.13;0.80;;;;;;;7.88;74.56;99396.03;5011877;28;20045;-67
2023/04/13 02:11:19;;;;;;;1.23;0.57;;;;;;;7.91;74.08;99378.81;5018386;28;20064;-67
2023/04/13 02:13:44;;;;;;;3.13;0.80;;;;;;;7.85;74.10;99373.78;5008592;28;20140;-67
2023/04/13 02:16:09;;;;;;;1.55;0.63;;;;;;;7.84;74.75;99400.38;5010893;28;20042;-67
2023/04/13 02:18:36;;;;;;;1.60;0.55;;;;;;;7.81;74.86;99397.84;5012880;28;20062;-66
2023/04/13 02:21:07;;;;;;;2.72;0.70;;;;;;;7.80;75.19;99408.19;5011265;28;20072;-67
2023/04/13 02:23:34;;;;;;;4.18;0.70;;;;;;;7.88;75.08;99403.72;5013688;28;20038;-67
2023/04/13 02:26:00;;;;;;;2.50;0.77;;;;;;;7.95;74.63;99398.44;5023853;28;20040;-67
2023/04/13 02:28:26;;;;;;;2.45;0.70;;;;;;;8.00;75.17;99406.06;5012417;28;20038;-67
2023/04/13 02:30:53;;;;;;;7.03;0.88;;;;;;;8.00;74.51;99401.78;5014053;28;20092;-68
2023/04/13 02:33:20;;;;;;;3.10;0.63;;;;;;;8.01;74.60;99388.00;5013220;28;20034;-67
2023/04/13 02:35:48;;;;;;;3.78;0.80;;;;;;;8.03;74.11;99393.16;5019065;28;20029;-67
2023/04/13 02:38:14;;;;;;;5.35;0.80;;;;;;;8.02;74.56;99394.88;5008747;28;20045;-67
2023/04/13 02:40:41;;;;;;;2.28;0.60;;;;;;;7.99;74.41;99392.34;5015393;28;20083;-67
2023/04/13 02:43:07;;;;;;;2.38;0.70;;;;;;;7.98;74.03;99397.53;5014882;28;20057;-67
2023/04/13 02:45:33;;;;;;;1.70;0.68;;;;;;;7.97;74.21;99388.13;5016562;28;20074;-67
2023/04/13 02:47:58;;;;;;;2.33;0.60;;;;;;;7.93;73.77;99389.91;5015561;28;20034;-67
2023/04/13 02:50:24;;;;;;;2.08;0.60;;;;;;;7.92;74.50;99395.09;5021311;28;20041;-67
2023/04/13 02:52:49;;;;;;;2.72;0.55;;;;;;;7.89;74.47;99393.41;5013478;28;20092;-67
2023/04/13 02:55:15;;;;;;;4.80;0.90;;;;;;;7.83;74.59;99393.53;5016851;28;20267;-67
2023/04/13 02:57:43;;;;;;;2.30;0.73;;;;;;;7.76;75.19;99396.25;5017873;28;20086;-67
2023/04/13 03:00:10;;;;;;;3.30;0.60;;;;;;;7.72;74.74;99398.03;5017200;28;20132;-67
2023/04/13 03:02:36;;;;;;;2.53;0.50;;;;;;;7.73;75.49;99406.59;5016201;28;20062;-67
2023/04/13 03:05:04;;;;;;;1.27;0.50;;;;;;;7.74;75.30;99408.31;5012617;28;20041;-67
2023/04/13 03:07:31;;;;;;;1.90;0.90;;;;;;;7.77;75.52;99397.97;5015464;28;20117;-67
2023/04/13 03:09:56;;;;;;;3.58;0.77;;;;;;;7.83;74.60;99388.38;5014629;28;20883;-67
2023/04/13 03:12:22;;;;;;;2.63;1.10;;;;;;;7.87;75.04;99402.03;5016749;28;20038;-67
2023/04/13 03:14:48;;;;;;;5.95;0.70;;;;;;;7.86;74.87;99393.47;5013927;28;20037;-67
2023/04/13 03:17:15;;;;;;;2.30;0.70;;;;;;;7.91;75.09;99401.09;5020114;28;20457;-67
2023/04/13 03:19:41;;;;;;;2.33;0.60;;;;;;;7.99;74.04;99391.50;5014153;28;20025;-68
2023/04/13 03:22:07;;;;;;;1.27;0.50;;;;;;;8.00;74.45;99388.06;5021350;28;20022;-68
2023/04/13 03:24:34;;;;;;;2.15;0.50;;;;;;;7.99;74.29;99394.94;5013391;28;20117;-68
2023/04/13 03:26:59;;;;;;;2.50;0.60;;;;;;;8.02;74.09;99384.56;5014316;28;20045;-68
2023/04/13 03:29:24;;;;;;;1.42;0.60;;;;;;;8.01;74.58;99389.75;5006972;28;20481;-68
2023/04/13 03:31:50;;;;;;;2.10;0.70;;;;;;;8.04;74.73;99396.56;5014062;28;20109;-68
2023/04/13 03:34:17;;;;;;;2.47;0.70;;;;;;;8.08;74.23;99391.31;5012497;28;20030;-68
2023/04/13 03:36:42;;;;;;;1.23;0.73;;;;;;;8.10;74.16;99391.31;5019304;28;20037;-68
2023/04/13 03:39:08;;;;;;;2.92;0.63;;;;;;;8.13;74.14;99383.53;5019117;28;20049;-68
2023/04/13 03:41:33;;;;;;;1.00;0.57;;;;;;;8.12;74.98;99399.84;5012361;28;20871;-67
2023/04/13 03:43:58;;;;;;;4.20;1.13;;;;;;;8.18;73.19;99366.25;5017767;28;20124;-68
2023/04/13 03:46:24;;;;;;;1.25;0.63;;;;;;;8.17;73.91;99388.56;5016905;28;20174;-68
2023/04/13 03:48:50;;;;;;;1.85;0.88;;;;;;;8.20;73.49;99380.78;5017936;28;20568;-69
2023/04/13 03:51:15;;;;;;;5.15;1.35;;;;;;;8.20;73.23;99388.50;5017543;28;20037;-68
2023/04/13 03:53:41;;;;;;;1.52;0.68;;;;;;;8.25;72.59;99376.38;5015598;28;20103;-67
2023/04/13 03:56:07;;;;;;;7.32;0.80;;;;;;;8.33;72.78;99371.06;5012725;28;20029;-69
2023/04/13 03:58:33;;;;;;;2.30;0.70;;;;;;;8.35;72.27;99375.31;5016893;28;20039;-67
2023/04/13 04:00:58;;;;;;;4.00;0.90;;;;;;;8.38;72.75;99384.69;5018515;28;20052;-68
2023/04/13 04:03:24;;;;;;;2.40;0.70;;;;;;;8.37;72.73;99388.97;5025585;28;20037;-67
2023/04/13 04:05:50;;;;;;;6.70;1.55;;;;;;;8.39;72.20;99391.53;5016269;28;22183;-68
2023/04/13 04:08:15;;;;;;;3.63;1.25;;;;;;;8.40;72.55;99391.50;5019061;28;20326;-67
2023/04/13 04:10:40;;;;;;;2.55;0.80;;;;;;;8.38;72.14;99387.25;5013412;28;20466;-68
2023/04/13 04:13:06;;;;;;;2.88;0.85;;;;;;;8.36;72.86;99407.06;5017144;28;20508;-68
2023/04/13 04:15:31;;;;;;;4.55;0.95;;;;;;;8.32;72.96;99424.28;5016722;28;20534;-67
2023/04/13 04:17:57;;;;;;;1.25;0.50;;;;;;;8.33;72.80;99420.84;5015742;28;20445;-68
2023/04/13 04:20:22;;;;;;;4.00;0.80;;;;;;;8.34;72.97;99419.09;5019824;28;20045;-68
2023/04/13 04:22:50;;;;;;;3.85;0.75;;;;;;;8.35;73.07;99421.66;5014887;28;20036;-68
2023/04/13 04:25:21;;;;;;;5.55;0.95;;;;;;;8.41;72.55;99411.22;5019181;28;20398;-69
2023/04/13 04:27:56;;;;;;;4.45;0.77;;;;;;;8.46;72.31;99411.09;5011834;28;20038;-68
2023/04/13 04:30:22;;;;;;;;;;;;;;;8.51;72.08;99409.31;5022958;28;20041;-68
2023/04/13 04:32:47;;;;;;;2.55;0.77;;;;;;;8.52;71.78;99414.41;5018559;28;19925;-68
2023/04/13 04:35:13;;;;;;;2.90;0.90;;;;;;;8.56;71.74;99407.47;5018967;28;20148;-68
2023/04/13 04:37:39;;;;;;;1.63;0.50;;;;;;;8.56;72.32;99422.91;5007418;28;20029;-67
2023/04/13 04:40:09;;;;;;;2.58;0.93;;;;;;;8.55;73.04;99442.66;5013393;28;20118;-68
2023/04/13 04:42:36;;;;;;;2.97;0.90;;;;;;;8.60;72.30;99437.44;5011522;28;20753;-68
2023/04/13 04:45:03;;;;;;;2.17;0.70;;;;;;;8.60;72.26;99429.72;5018336;28;20383;-68
2023/04/13 04:47:29;;;;;;;2.20;0.60;;;;;;;8.63;72.77;99439.94;5012455;28;20056;-68
2023/04/13 04:49:56;;;;;;;4.35;0.80;;;;;;;8.64;71.75;99436.47;5019016;28;20033;-68
2023/04/13 04:52:24;;;;;;;1.73;0.60;;;;;;;8.66;71.89;99437.31;5017511;28;20037;-68
2023/04/13 04:54:50;;;;;;;1.58;0.63;;;;;;;8.68;71.84;99448.41;5019862;28;20108;-68
2023/04/13 04:57:17;;;;;;;2.08;0.50;;;;;;;8.66;72.57;99460.47;5012993;28;20029;-67
2023/04/13 04:59:42;;;;;;;2.45;0.52;;;;;;;8.66;72.40;99459.63;5012541;28;20042;-68
2023/04/13 05:02:08;;;;;;;1.10;0.50;;;;;;;8.67;72.29;99462.16;5015948;28;20044;-68
2023/04/13 05:04:33;;;;;;;3.92;0.65;;;;;;;8.71;72.02;99465.53;5012569;28;20029;-68
2023/04/13 05:06:59;;;;;;;2.45;1.17;;;;;;;8.71;72.34;99476.69;5021183;28;20501;-68
2023/04/13 05:09:25;;;;;;;2.25;1.15;;;;;;;8.73;71.90;99477.47;5007418;28;20044;-68
2023/04/13 05:11:50;;;;;;;2.25;1.05;;;;;;;8.75;71.96;99490.34;5020396;28;20050;-67
2023/04/13 05:14:16;;;;;;;1.67;0.70;;;;;;;8.76;72.08;99494.59;5015817;28;20035;-68
2023/04/13 05:16:41;;;;;;;2.33;0.52;;;;;;;8.76;71.81;99495.44;5017563;28;20503;-68
2023/04/13 05:19:07;;;;;;;1.92;0.75;;;;;;;8.77;72.12;99504.88;5019437;28;20036;-68
2023/04/13 05:21:33;;;;;;;3.05;0.50;;;;;;;8.77;72.10;99502.31;5017082;28;20183;-67
2023/04/13 05:23:59;;;;;;;2.75;1.08;;;;;;;8.78;72.15;99511.75;5014266;28;20033;-69
2023/04/13 05:26:24;;;;;;;3.08;0.55;;;;;;;8.80;72.54;99524.59;5013488;28;20704;-70
2023/04/13 05:28:50;;;;;;;1.75;0.80;;;;;;;8.82;72.12;99531.38;5009939;28;20030;-70
2023/04/13 05:31:16;;;;;;;2.42;0.63;;;;;;;8.84;72.91;99545.09;5010775;28;20025;-69
2023/04/13 05:33:41;;;;;;;2.65;0.70;;;;;;;8.83;73.31;99555.44;5026749;28;20041;-69
2023/04/13 05:36:07;;;;;;;1.50;0.80;;;;;;;8.81;73.77;99559.78;5013752;28;20071;-69
2023/04/13 05:38:33;;;;;;;3.70;0.88;;;;;;;8.80;74.81;99565.81;5012573;28;20534;-69
2023/04/13 05:40:59;;;;;;;4.47;1.20;;;;;;;8.78;75.10;99568.44;5009055;28;20033;-69
2023/04/13 05:43:24;;;;;;;0.95;0.70;;;;;;;8.78;74.33;99572.72;5009198;28;20025;-69
2023/04/13 05:45:50;;;;;;;1.65;0.57;;;;;;;8.79;74.69;99588.13;5017308;28;20411;-68
2023/04/13 05:48:15;;;;;;;2.00;0.75;;;;;;;8.77;75.60;99607.09;5017141;28;20052;-68
2023/04/13 05:50:42;;;;;;;2.67;1.00;;;;;;;8.75;76.45;99608.84;5012903;28;20034;-69
2023/04/13 05:53:08;;;;;;;1.10;0.60;;;;;;;8.68;76.61;99613.28;5027103;28;20040;-68
2023/04/13 05:55:33;;;;;;;1.50;0.47;;;;;;;8.64;78.02;99619.34;5026830;28;20033;-68
2023/04/13 05:58:02;;;;;;;3.13;0.70;;;;;;;8.58;79.06;99622.03;5014235;28;20714;-68
2023/04/13 06:00:28;;;;;;;2.55;0.63;;;;;;;8.49;78.93;99627.34;5012267;28;20037;-68
2023/04/13 06:02:54;;;;;;;1.75;0.52;;;;;;;8.43;79.83;99627.47;5019961;28;20095;-68
2023/04/13 06:05:19;;;;;;;2.83;0.60;;;;;;;8.42;80.68;99636.09;5016399;28;20034;-68
2023/04/13 06:07:45;;;;;;;2.63;0.50;;;;;;;8.42;80.34;99636.94;5012620;28;20044;-67
2023/04/13 06:10:14;;;;;;;2.03;0.77;;;;;;;8.48;80.63;99635.97;5009618;28;20029;-67
2023/04/13 06:12:40;;;;;;;2.40;0.60;;;;;;;8.50;80.68;99631.63;5015061;28;20046;-68
2023/04/13 06:15:06;;;;;;;0.82;0.43;;;;;;;8.58;80.47;99637.47;5014775;28;20459;-68
2023/04/13 06:17:32;;;;;;;1.00;0.82;;;;;;;8.63;80.04;99647.72;5018444;28;20141;-68
2023/04/13 06:19:57;;;;;;;1.52;0.50;;;;;;;8.67;80.61;99652.78;5016435;28;20045;-68
2023/04/13 06:22:22;;;;;;;3.95;0.90;;;;;;;8.73;80.66;99654.38;5016438;28;20068;-67
2023/04/13 06:24:50;;;;;;;0.93;0.57;;;;;;;8.76;80.12;99659.47;5014693;28;20037;-68
2023/04/13 06:27:16;;;;;;;2.47;0.68;;;;;;;8.77;80.48;99658.59;5008502;28;20037;-67
2023/04/13 06:29:42;;;;;;;1.48;0.50;;;;;;;8.80;80.97;99671.44;5015292;28;20330;-67
2023/04/13 06:32:08;;;;;;;1.45;0.55;;;;;;;8.76;81.88;99669.78;5013102;28;20148;-67
2023/04/13 06:34:34;;;;;;;1.55;0.50;;;;;;;8.69;82.30;99663.91;5007156;28;20042;-66
2023/04/13 06:37:00;;;;;;;1.80;0.40;;;;;;;8.63;82.78;99679.50;5016426;28;20037;-67
2023/04/13 06:39:26;;;;;;;1.42;0.40;;;;;;;8.61;84.36;99678.63;5012323;28;20041;-67
2023/04/13 06:41:52;;;;;;;0.50;0.40;;;;;;;8.54;84.97;99687.38;5015398;28;20038;-67
2023/04/13 06:44:17;;;;;;;2.90;0.82;;;;;;;8.50;84.72;99683.13;5007549;28;20048;-66
2023/04/13 06:46:42;;;;;;;0.68;0.60;;;;;;;8.47;85.70;99686.63;5015282;28;20033;-67
2023/04/13 06:49:08;;;;;;;1.55;0.50;;;;;;;8.40;83.87;99687.59;5015192;28;20582;-67
2023/04/13 06:51:33;;;;;;;0.40;0.40;;;;;;;8.35;83.35;99685.97;5015008;28;20038;-68
2023/04/13 06:53:59;;;;;;;1.88;0.40;;;;;;;8.35;83.16;99697.13;5009337;28;20609;-67
2023/04/13 06:56:24;;;;;;;1.08;0.40;;;;;;;8.37;83.36;99691.94;5008492;28;20072;-67
2023/04/13 06:58:49;;;;;;;2.75;0.68;;;;;;;8.43;83.81;99707.28;5015417;28;20051;-67
2023/04/13 07:01:15;;;;;;;2.35;0.60;;;;;;;8.49;84.29;99714.91;5019340;28;20021;-66
2023/04/13 07:03:41;;;;;;;3.13;0.68;;;;;;;8.52;84.06;99707.97;5022826;28;20441;-67
2023/04/13 07:06:07;;;;;;;1.05;0.47;;;;;;;8.54;83.38;99703.66;5016073;28;20107;-67
2023/04/13 07:08:33;;;;;;;0.88;0.50;;;;;;;8.54;82.76;99711.38;5018279;28;20041;-67
2023/04/13 07:10:58;;;;;;;1.13;0.52;;;;;;;8.57;83.01;99713.06;5018088;28;20050;-67
2023/04/13 07:13:25;;;;;;;1.25;0.40;;;;;;;8.59;83.04;99719.03;5022802;28;20774;-67
2023/04/13 07:15:50;;;;;;;0.68;0.50;;;;;;;8.61;82.11;99719.00;5016933;28;20132;-68
2023/04/13 07:18:16;;;;;;;1.35;0.50;;;;;;;8.66;81.78;99714.63;5025426;28;20749;-68
2023/04/13 07:20:41;;;;;;;1.63;0.30;;;;;;;8.77;81.15;99723.03;5021288;28;20038;-68
2023/04/13 07:23:08;;;;;;;4.10;0.80;;;;;;;9.00;80.52;99708.84;5026292;28;20040;-67
2023/04/13 07:25:33;;;;;;;0.98;0.52;;;;;;;9.21;79.26;99717.03;5019247;28;20045;-68
2023/04/13 07:27:59;;;;;;;1.33;0.40;;;;;;;9.30;77.87;99709.13;5024190;28;20038;-68
2023/04/13 07:30:25;;;;;;;2.13;0.60;;;;;;;9.33;76.66;99696.16;5021124;28;20033;-68
2023/04/13 07:32:51;;;;;;;1.38;0.40;;;;;;;9.38;76.41;99709.81;5018852;28;20048;-68
2023/04/13 07:35:17;;;;;;;3.50;0.52;;;;;;;9.41;77.01;99727.78;5013144;28;20042;-67
2023/04/13 07:37:43;;;;;;;0.52;0.47;;;;;;;9.52;77.48;99729.31;5018326;28;20033;-68
2023/04/13 07:40:10;;;;;;;0.35;0.35;;;;;;;9.65;74.32;99704.09;5020452;28;20057;-69
2023/04/13 07:42:35;;;;;;;1.75;0.50;;;;;;;9.94;75.07;99724.94;5015113;28;20026;-68
2023/04/13 07:45:01;;;;;;;0.82;0.55;;;;;;;10.06;74.05;99710.94;5001270;28;20095;-68
2023/04/13 07:47:27;;;;;;;0.57;0.38;;;;;;;10.16;72.64;99702.09;5018067;28;20029;-68
2023/04/13 07:49:53;;;;;;;1.33;0.40;;;;;;;10.32;71.82;99692.25;5020902;28;20084;-69
2023/04/13 07:52:19;;;;;;;0.65;0.30;;;;;;;10.47;71.01;99684.97;5011616;28;20083;-69
2023/04/13 07:54:45;;;;;;;0.70;0.32;;;;;;;10.57;70.37;99688.16;5015857;28;20059;-69
2023/04/13 07:57:10;;;;;;;0.57;0.50;;;;;;;10.66;71.14;99693.09;5010710;28;20041;-68
2023/04/13 07:59:35;;;;;;;2.42;0.38;;;;;;;10.52;69.47;99666.75;5020367;28;20139;-69
2023/04/13 08:02:01;;;;;;;4.45;0.60;;;;;;;10.49;69.88;99687.50;5011367;28;20049;-68
2023/04/13 08:04:26;;;;;;;2.35;0.70;;;;;;;10.54;71.20;99708.91;5012273;28;20960;-68
2023/04/13 08:06:52;;;;;;;1.45;0.50;;;;;;;10.72;71.05;99708.44;5010673;28;20621;-67
2023/04/13 08:09:18;;;;;;;1.48;0.50;;;;;;;10.78;69.36;99685.88;5007157;28;20156;-68
2023/04/13 08:11:43;;;;;;;1.40;0.43;;;;;;;10.96;69.06;99697.44;5016876;28;20044;-67
2023/04/13 08:14:10;;;;;;;1.42;0.40;;;;;;;11.01;68.63;99679.25;5020159;28;20064;-68
2023/04/13 08:16:36;;;;;;;1.38;0.45;;;;;;;10.99;68.53;99694.78;5012145;28;20041;-67
2023/04/13 08:19:02;;;;;;;3.47;0.50;;;;;;;10.99;68.45;99694.78;5017756;28;20042;-67
2023/04/13 08:21:28;;;;;;;2.05;0.60;;;;;;;11.07;69.39;99705.75;5017482;28;20096;-67
2023/04/13 08:23:55;;;;;;;1.10;0.70;;;;;;;11.09;68.08;99704.00;5024355;28;20394;-67
2023/04/13 08:26:20;;;;;;;3.33;0.90;;;;;;;11.18;68.10;99708.91;5015740;28;20861;-68
2023/04/13 08:28:47;;;;;;;2.40;0.73;;;;;;;11.17;68.54;99711.53;5026264;28;20021;-68
2023/04/13 08:31:13;;;;;;;6.15;1.08;;;;;;;11.06;67.70;99700.63;5018045;28;20326;-69
2023/04/13 08:33:39;;;;;;;4.22;0.63;;;;;;;11.19;67.58;99692.50;5024400;28;20042;-68
2023/04/13 08:36:05;;;;;;;5.03;1.10;;;;;;;11.39;67.58;99709.19;5014625;28;20041;-68
2023/04/13 08:38:31;;;;;;;2.65;0.80;;;;;;;11.45;66.33;99690.94;5016192;28;20048;-67
2023/04/13 08:40:57;;;;;;;2.42;0.85;;;;;;;11.35;66.18;99675.66;5020476;28;20025;-68
2023/04/13 08:43:23;;;;;;;5.43;0.73;;;;;;;11.47;67.81;99725.38;5019811;28;20056;-67
2023/04/13 08:45:49;;;;;;;4.45;0.70;;;;;;;11.57;67.19;99706.13;5014959;28;20121;-66
2023/04/13 08:48:17;;;;;;;2.78;0.65;;;;;;;11.56;66.90;99700.09;5019255;28;20030;-67
2023/04/13 08:50:44;;;;;;;3.30;1.00;;;;;;;11.56;67.23;99709.59;5014656;28;20092;-68
2023/04/13 08:53:09;;;;;;;1.75;0.68;;;;;;;11.58;66.46;99713.81;5018330;28;20100;-67
2023/04/13 08:55:42;;;;;;;6.85;0.98;;;;;;;11.57;65.93;99701.81;5014424;28;20034;-67
2023/04/13 08:58:11;;;;;;;3.60;1.30;;;;;;;11.54;65.59;99695.84;5016211;28;20041;-67
2023/04/13 09:00:36;;;;;;;3.60;1.02;;;;;;;11.64;65.45;99694.69;5009112;28;20040;-67
2023/04/13 09:03:05;;;;;;;3.80;1.15;;;;;;;11.72;65.13;99688.38;5025061;28;20298;-67
2023/04/13 09:05:33;;;;;;;5.38;1.20;;;;;;;11.84;65.81;99702.72;5011200;28;20038;-67
2023/04/13 09:08:03;;;;;;;4.88;1.00;;;;;;;11.84;63.71;99656.13;5026495;28;20037;-68
2023/04/13 09:10:29;;;;;;;5.93;1.20;;;;;;;11.84;62.56;99643.16;5016094;28;20054;-68
2023/04/13 09:12:54;;;;;;;6.03;1.33;;;;;;;12.11;63.68;99672.53;5016324;28;20525;-68
2023/04/13 09:15:21;;;;;;;4.60;1.52;;;;;;;12.50;62.46;99642.69;5015147;28;20037;-67
2023/04/13 09:17:47;;;;;;;5.15;1.35;;;;;;;12.67;61.68;99634.34;5018091;28;21201;-68
2023/04/13 09:20:16;;;;;;;5.47;1.95;;;;;;;12.89;59.32;99599.81;5021325;28;20129;-68
2023/04/13 09:22:42;;;;;;;6.28;1.52;;;;;;;13.00;59.46;99613.25;5024960;28;20013;-67
2023/04/13 09:25:22;;;;;;;10.95;1.70;;;;;;;13.10;58.40;99612.94;5020389;28;20027;-68
2023/04/13 09:27:48;;;;;;;8.20;1.63;;;;;;;13.08;58.92;99625.97;5014561;28;20037;-68
2023/04/13 09:30:17;;;;;;;4.15;1.48;;;;;;;12.90;57.25;99593.72;5015796;28;20046;-68
2023/04/13 09:32:42;;;;;;;12.52;1.88;;;;;;;12.84;57.25;99611.25;5015112;28;20041;-68
2023/04/13 09:35:08;;;;;;;7.28;1.55;;;;;;;12.76;58.05;99636.63;5016822;28;20045;-68
2023/04/13 09:37:35;;;;;;;6.60;1.85;;;;;;;12.61;59.54;99663.06;5015100;28;20037;-67
2023/04/13 09:40:10;;;;;;;7.57;1.55;;;;;;;12.62;59.80;99665.59;5015981;28;20041;-68
2023/04/13 09:42:40;;;;;;;4.22;1.33;;;;;;;12.50;59.93;99676.38;5016575;28;20111;-68
2023/04/13 09:45:06;;;;;;;5.63;1.20;;;;;;;12.31;59.61;99675.31;5018449;28;20595;-68
2023/04/13 09:47:39;;;;;;;3.47;1.10;;;;;;;12.03;60.30;99685.69;5017129;28;20400;-68
2023/04/13 09:50:20;;;;;;;6.07;1.30;;;;;;;11.87;62.36;99736.28;5013674;28;20041;-67
2023/04/13 09:52:45;;;;;;;9.40;1.42;;;;;;;11.66;65.69;99802.44;5011517;28;20091;-67
2023/04/13 09:55:18;;;;;;;5.38;0.90;;;;;;;11.58;67.78;99843.22;5009544;28;20471;-67
2023/04/13 09:57:43;;;;;;;2.28;0.90;;;;;;;11.66;70.02;99869.75;5012606;28;20599;-67
2023/04/13 10:00:20;;;;;;;3.80;1.05;;;;;;;11.94;68.87;99840.50;5012178;28;20035;-68
2023/04/13 10:02:48;;;;;;;3.40;1.02;;;;;;;12.08;65.84;99787.41;5013584;28;20583;-67
2023/04/13 10:05:14;;;;;;;5.57;1.00;;;;;;;12.31;65.64;99782.41;5016105;28;20479;-68
2023/04/13 10:07:45;;;;;;;2.40;0.80;;;;;;;12.42;63.91;99744.03;5021436;28;20140;-67
2023/04/13 10:10:11;;;;;;;5.47;1.00;;;;;;;12.46;60.92;99692.94;5022402;28;20461;-67
2023/04/13 10:12:42;;;;;;;4.18;1.10;;;;;;;12.59;61.95;99716.69;5018006;28;20357;-67
2023/04/13 10:15:24;;;;;;;4.82;1.15;;;;;;;12.77;62.45;99731.66;5021624;28;20034;-67
2023/04/13 10:18:04;;;;;;;5.38;1.38;;;;;;;12.96;59.01;99676.50;5013001;28;20037;-67
2023/04/13 10:20:30;;;;;;;6.22;1.30;;;;;;;12.96;59.89;99699.00;5013361;28;20570;-67
2023/04/13 10:22:56;;;;;;;7.20;1.63;;;;;;;12.73;58.60;99673.03;5017572;28;20030;-67
2023/04/13 10:25:22;;;;;;;7.97;1.52;;;;;;;12.57;58.60;99690.84;5011362;28;20494;-67
2023/04/13 10:27:58;;;;;;;8.70;1.60;;;;;;;12.51;58.93;99703.16;5017450;28;20041;-66
2023/04/13 10:30:23;;;;;;;10.48;1.77;;;;;;;12.82;59.40;99706.44;5010652;28;20045;-67
2023/04/13 10:33:04;;;;;;;8.68;1.73;;;;;;;13.08;56.89;99675.25;5022200;28;20037;-67
2023/04/13 10:35:33;;;;;;;10.85;2.00;;;;;;;12.85;56.88;99682.97;5034354;28;20041;-66
2023/04/13 10:37:58;;;;;;;7.28;1.70;;;;;;;12.92;58.38;99711.22;5018068;28;20044;-65
2023/04/13 10:40:24;;;;;;;9.57;2.00;;;;;;;12.81;58.06;99705.56;5026660;28;20111;-66
2023/04/13 10:42:50;;;;;;;7.13;1.77;;;;;;;12.87;58.10;99712.28;5022765;28;20462;-66
2023/04/13 10:45:27;;;;;;;7.97;2.30;;;;;;;12.99;57.06;99688.53;5026772;28;20128;-67
2023/04/13 10:47:53;;;;;;;8.23;1.85;;;;;;;13.06;57.18;99704.75;5025485;28;20630;-67
2023/04/13 10:50:21;;;;;;;7.18;2.10;;;;;;;13.13;56.91;99699.28;5014867;28;20045;-68
2023/04/13 10:53:03;;;;;;;6.82;1.65;;;;;;;13.27;55.31;99659.84;5009875;28;20037;-68
2023/04/13 10:55:30;;;;;;;8.70;2.13;;;;;;;13.39;55.30;99673.22;5010598;28;20116;-68
2023/04/13 10:58:00;;;;;;;6.68;2.13;;;;;;;13.43;53.81;99654.03;5017519;28;20034;-67
2023/04/13 11:00:27;;;;;;;8.40;2.47;;;;;;;13.50;53.61;99655.50;5012065;28;20045;-67
2023/04/13 11:02:57;;;;;;;5.63;1.80;;;;;;;13.35;54.84;99668.22;5010945;28;20037;-67
2023/04/13 11:05:24;;;;;;;8.63;2.40;;;;;;;13.53;55.03;99688.31;5018501;28;20037;-68
2023/04/13 11:07:50;;;;;;;8.07;2.17;;;;;;;13.77;53.69;99657.97;5020812;28;20029;-67
2023/04/13 11:10:26;;;;;;;7.90;2.35;;;;;;;13.71;51.96;99608.84;5022350;28;20025;-68
2023/04/13 11:12:54;;;;;;;9.23;1.98;;;;;;;14.20;51.59;99613.75;5024624;28;20156;-69
2023/04/13 11:15:28;;;;;;;9.32;2.55;;;;;;;14.58;53.09;99649.41;5024525;28;20572;-68
2023/04/13 11:17:55;;;;;;;10.83;2.10;;;;;;;14.32;51.09;99610.66;5017806;28;20096;-68
2023/04/13 11:20:34;;;;;;;12.63;2.78;;;;;;;13.91;52.84;99656.50;5022170;28;20083;-67
2023/04/13 11:23:02;;;;;;;9.30;2.00;;;;;;;13.67;52.94;99677.38;5021775;28;20037;-67
2023/04/13 11:25:28;;;;;;;10.18;2.17;;;;;;;13.65;53.01;99694.78;5011886;28;20034;-69
2023/04/13 11:27:55;;;;;;;6.97;2.17;;;;;;;13.75;53.75;99699.56;5017016;28;20042;-69
2023/04/13 11:30:21;;;;;;;6.88;2.03;;;;;;;13.54;53.43;99705.56;5017325;28;20751;-69
2023/04/13 11:32:49;;;;;;;8.98;2.22;;;;;;;13.63;53.67;99701.75;5018802;28;20045;-69
2023/04/13 11:35:15;;;;;;;8.73;2.28;;;;;;;13.79;54.47;99721.06;5032706;28;20037;-69
2023/04/13 11:37:43;;;;;;;11.25;1.95;;;;;;;13.95;52.89;99685.81;5018537;28;20391;-68
2023/04/13 11:40:16;;;;;;;7.10;1.95;;;;;;;14.01;52.42;99672.56;5019381;28;20040;-68